Main page
METAR-TAF:

METAR-TAF

Airports :

Castres, France

Castres–Mazamet Airport

latitude: 43-33-25N, longitude: 2-17-21E, elevation: 239 m

Current weather observation

The report was made 10 minutes ago, at 02:00 UTC
Wind 22 kt from the East/Southeast, varying between Northeast and Southeast
Temperature 23°C
Humidity 33%
Pressure 1013 hPa
Visibility 10 km or more
no clouds below 1500 m and no cumulonimbus

METAR: LFCK 290200Z AUTO 12022KT 050V140 CAVOK 23/06 Q1013

Time: 04:10 (02:10 UTC)

Forecast

The report was made 9 hours and 10 minutes ago, at 17:00 UTC
Forecast valid from 28 at 18 UTC to 29 at 03 UTC
Wind 20 kt from the Southeast with gusts up to 35 kt
Visibility 10 km or more
no clouds below 1500 m and no cumulonimbus

TAF: LFCK 281700Z 2818/2903 13020G35KT CAVOK

Weather observations and forecasts of more than 4000 airports (METAR and TAF reports).

The available stations are represented by yellow and red dots on the map.

Hover mouse over dot to see the name of the station.

Then click to see weather observations and forecasts.

To change the map : click on the green buttons with a black cross to zoom in, on the green button with a dash to zoom out, or on the green arrows for adjacent maps.


METAR-TAF: